Time;durP1;ratioP1;P1;durP2;ratioP2;P2;SDS_P1;SDS_P2;PMS_P1;PMS_P2;Temp;Humidity;BMP_temperature;BMP_pressure;BME280_temperature;BME280_humidity;BME280_pressure;Samples;Min_cycle;Max_cycle;Signal;HPM_P1;HPM_P2
2021/12/26 00:02:09;;;;;;;6.30;1.98;;;-4.50;99.90;;;;;;4933702;29;20130;-83
2021/12/26 00:04:35;;;;;;;5.40;1.80;;;-4.60;99.90;;;;;;4933828;29;20126;-83
2021/12/26 00:07:03;;;;;;;4.95;1.77;;;-4.60;99.90;;;;;;4933633;29;20483;-83
2021/12/26 00:09:29;;;;;;;3.72;1.55;;;-4.60;99.90;;;;;;4950056;28;20050;-84
2021/12/26 00:11:54;;;;;;;5.55;2.13;;;-4.60;99.90;;;;;;4928997;29;20505;-83
2021/12/26 00:14:20;;;;;;;6.40;2.17;;;-4.60;99.90;;;;;;4933229;28;20598;-84
2021/12/26 00:16:46;;;;;;;6.30;1.92;;;-4.70;99.90;;;;;;4949729;28;20044;-83
2021/12/26 00:19:12;;;;;;;6.88;1.80;;;-4.70;99.90;;;;;;4932698;29;20376;-83
2021/12/26 00:21:38;;;;;;;9.20;2.50;;;-4.70;99.90;;;;;;4933261;29;20139;-84
2021/12/26 00:24:04;;;;;;;4.40;2.08;;;-4.70;99.90;;;;;;4933441;29;20129;-84
2021/12/26 00:26:32;;;;;;;5.55;1.80;;;-4.70;99.90;;;;;;4951760;29;20114;-83
2021/12/26 00:28:59;;;;;;;6.18;2.00;;;-4.70;99.90;;;;;;4951014;28;20090;-84
2021/12/26 00:31:26;;;;;;;6.00;2.15;;;-4.80;99.90;;;;;;4950183;28;20959;-84
2021/12/26 00:33:52;;;;;;;4.90;2.15;;;-3.10;99.90;;;;;;4931490;29;20089;-84
2021/12/26 00:36:17;;;;;;;5.50;2.10;;;-4.80;99.90;;;;;;4933314;28;20094;-83
2021/12/26 00:38:43;;;;;;;6.90;2.40;;;-3.90;99.90;;;;;;4950952;28;20055;-83
2021/12/26 00:41:09;;;;;;;7.13;2.38;;;-4.80;99.90;;;;;;4949875;28;20048;-83
2021/12/26 00:43:35;;;;;;;6.03;2.15;;;-4.80;99.90;;;;;;4932821;29;20075;-83
2021/12/26 00:46:01;;;;;;;4.75;1.88;;;-4.80;99.90;;;;;;4932867;29;20075;-84
2021/12/26 00:48:27;;;;;;;6.35;2.33;;;-4.80;99.90;;;;;;4934236;29;20457;-84
2021/12/26 00:50:53;;;;;;;5.38;2.08;;;-4.80;99.90;;;;;;4932692;29;20051;-84
2021/12/26 00:53:18;;;;;;;5.40;2.17;;;-4.80;99.90;;;;;;4947777;29;20043;-84
2021/12/26 00:55:45;;;;;;;6.32;2.80;;;-4.80;99.90;;;;;;4950831;29;20047;-83
2021/12/26 00:58:10;;;;;;;6.13;2.53;;;-4.80;99.90;;;;;;4950007;28;20208;-84
2021/12/26 01:00:41;;;;;;;6.47;2.13;;;-4.80;99.90;;;;;;4933581;29;20047;-84
2021/12/26 01:03:08;;;;;;;6.10;2.20;;;-4.80;99.90;;;;;;4918382;29;20047;-84
2021/12/26 01:05:36;;;;;;;6.03;2.03;;;-4.40;99.90;;;;;;4945490;28;20047;-84
2021/12/26 01:08:04;;;;;;;6.10;2.33;;;-4.80;99.90;;;;;;4933603;28;20039;-83
2021/12/26 01:10:36;;;;;;;4.50;2.15;;;-3.50;99.90;;;;;;4950325;29;20078;-83
2021/12/26 01:13:14;;;;;;;5.97;1.75;;;-4.80;99.90;;;;;;4945604;28;20122;-83
2021/12/26 01:15:41;;;;;;;5.00;2.05;;;-3.40;99.90;;;;;;4949341;29;20054;-83
2021/12/26 01:18:07;;;;;;;7.53;2.40;;;-2.80;99.90;;;;;;4950815;28;20105;-82
2021/12/26 01:20:45;;;;;;;4.85;1.90;;;-4.90;99.90;;;;;;4933543;29;20480;-83
2021/12/26 01:23:12;;;;;;;4.57;1.90;;;-4.90;99.90;;;;;;4949558;29;20376;-83
2021/12/26 01:25:39;;;;;;;10.88;2.22;;;-4.80;99.90;;;;;;4932220;29;20043;-83
2021/12/26 01:28:05;;;;;;;6.57;2.15;;;-4.90;99.90;;;;;;4933623;29;20043;-83
2021/12/26 01:30:32;;;;;;;4.47;2.05;;;-4.70;99.90;;;;;;4933505;29;20432;-82
2021/12/26 01:32:57;;;;;;;6.47;2.13;;;-4.90;99.90;;;;;;4932104;29;20039;-84
2021/12/26 01:35:23;;;;;;;6.25;1.98;;;-4.90;99.90;;;;;;4932058;29;20118;-84
2021/12/26 01:37:49;;;;;;;4.85;1.83;;;-4.80;99.90;;;;;;4932996;28;20051;-84
2021/12/26 01:40:16;;;;;;;3.90;2.10;;;-3.70;99.90;;;;;;4933559;29;20051;-84
2021/12/26 01:42:41;;;;;;;4.18;1.63;;;-5.00;99.90;;;;;;4932185;29;20530;-84
2021/12/26 01:45:08;;;;;;;4.38;1.77;;;-5.00;99.90;;;;;;4933877;29;20039;-84
2021/12/26 01:47:33;;;;;;;5.85;1.92;;;-4.60;99.90;;;;;;4953398;28;20043;-84
2021/12/26 01:49:59;;;;;;;5.18;1.85;;;-5.00;99.90;;;;;;4925337;29;20051;-84
2021/12/26 01:52:25;;;;;;;5.03;1.80;;;-5.00;99.90;;;;;;4927605;29;20148;-84
2021/12/26 01:55:00;;;;;;;5.50;1.83;;;-3.80;99.90;;;;;;4935827;29;20083;-84
2021/12/26 01:57:26;;;;;;;4.93;2.00;;;-5.00;99.90;;;;;;4936256;29;20055;-85
2021/12/26 01:59:52;;;;;;;4.22;1.70;;;-5.10;99.90;;;;;;4924383;28;20126;-83
2021/12/26 02:02:18;;;;;;;4.95;2.00;;;-5.10;99.90;;;;;;4935262;29;20195;-83
2021/12/26 02:04:44;;;;;;;4.95;1.70;;;-5.10;99.90;;;;;;4953296;28;20042;-83
2021/12/26 02:07:12;;;;;;;5.32;1.35;;;-3.90;99.90;;;;;;4934608;29;20043;-83
2021/12/26 02:09:37;;;;;;;5.35;1.45;;;-5.10;99.90;;;;;;4935585;28;20506;-84
2021/12/26 02:12:04;;;;;;;5.60;1.60;;;-5.10;99.90;;;;;;4948374;28;20044;-84
2021/12/26 02:14:30;;;;;;;5.97;1.70;;;-5.60;99.90;;;;;;4952875;28;20035;-84
2021/12/26 02:16:56;;;;;;;5.65;1.88;;;-5.10;99.90;;;;;;4952650;28;20065;-84
2021/12/26 02:19:22;;;;;;;4.93;1.77;;;-4.80;99.90;;;;;;4936110;28;20480;-84
2021/12/26 02:22:08;;;;;;;4.90;2.08;;;-5.20;99.90;;;;;;4936173;29;20171;-84
2021/12/26 02:25:10;;;;;;;4.95;2.40;;;-5.10;99.90;;;;;;4952118;28;20170;-84
2021/12/26 02:27:31;;;;;;;4.95;1.60;;;-5.10;99.90;;;;;;4935401;29;20074;-84
2021/12/26 02:30:09;;;;;;;4.25;1.58;;;-4.90;99.90;;;;;;4935022;28;20102;-84
2021/12/26 02:32:35;;;;;;;4.90;1.60;;;-5.20;99.90;;;;;;4935856;29;20451;-84
2021/12/26 02:35:01;;;;;;;2.97;1.52;;;-3.50;99.90;;;;;;4952890;28;20059;-84
2021/12/26 02:37:27;;;;;;;4.38;1.75;;;-5.10;99.90;;;;;;4951653;28;20106;-83
2021/12/26 02:39:54;;;;;;;4.90;1.70;;;-5.00;99.90;;;;;;4935559;29;20075;-85
2021/12/26 02:42:21;;;;;;;3.78;1.55;;;-5.20;99.90;;;;;;4935417;28;20051;-83
2021/12/26 02:44:47;;;;;;;5.20;1.65;;;-5.20;99.90;;;;;;4935924;29;20476;-84
2021/12/26 02:47:14;;;;;;;4.13;1.75;;;-5.30;99.90;;;;;;4934377;29;20090;-83
2021/12/26 02:49:40;;;;;;;3.33;1.25;;;-5.30;99.90;;;;;;4935694;29;20047;-84
2021/12/26 02:52:06;;;;;;;6.28;1.42;;;-5.30;99.90;;;;;;4934135;29;20044;-84
2021/12/26 02:54:32;;;;;;;4.10;1.40;;;-5.30;99.90;;;;;;4934851;29;20039;-83
2021/12/26 02:56:58;;;;;;;6.05;1.90;;;-4.80;99.90;;;;;;4934798;29;20046;-84
2021/12/26 02:59:23;;;;;;;5.28;1.60;;;-5.30;99.90;;;;;;4934431;29;20039;-83
2021/12/26 03:01:49;;;;;;;4.80;1.52;;;-5.30;99.90;;;;;;4948815;28;20050;-83
2021/12/26 03:04:15;;;;;;;3.80;1.70;;;-5.50;99.90;;;;;;4935638;29;20062;-83
2021/12/26 03:07:02;;;;;;;4.07;1.67;;;-5.40;99.90;;;;;;4950136;28;20082;-83
2021/12/26 03:09:31;;;;;;;3.95;2.00;;;-5.30;99.90;;;;;;4933110;29;20578;-84
2021/12/26 03:11:57;;;;;;;4.85;1.60;;;-5.50;99.90;;;;;;4929616;29;20114;-83
2021/12/26 03:14:23;;;;;;;5.00;1.70;;;-6.50;99.90;;;;;;4934762;28;20051;-83
2021/12/26 03:16:50;;;;;;;5.13;2.00;;;-5.50;99.90;;;;;;4935843;29;20137;-85
2021/12/26 03:19:16;;;;;;;5.53;1.55;;;-5.50;99.90;;;;;;4950959;28;20049;-84
2021/12/26 03:21:42;;;;;;;4.75;1.63;;;-5.50;99.90;;;;;;4934845;29;20047;-85
2021/12/26 03:24:07;;;;;;;3.65;1.70;;;-5.60;99.90;;;;;;4935100;28;20057;-85
2021/12/26 03:26:33;;;;;;;4.55;1.73;;;-5.00;99.90;;;;;;4934806;29;20054;-85
2021/12/26 03:28:58;;;;;;;5.03;1.40;;;-5.50;99.90;;;;;;4934734;29;20126;-85
2021/12/26 03:31:24;;;;;;;3.78;1.52;;;-5.50;99.90;;;;;;4934683;29;20574;-85
2021/12/26 03:33:50;;;;;;;4.90;1.98;;;-5.50;99.90;;;;;;4935125;28;20070;-85
2021/12/26 03:36:16;;;;;;;6.63;1.77;;;-5.50;99.90;;;;;;4933884;29;20483;-85
2021/12/26 03:38:42;;;;;;;5.50;1.90;;;-5.50;99.90;;;;;;4934225;29;20129;-85
2021/12/26 03:41:07;;;;;;;4.93;1.63;;;-5.50;99.90;;;;;;4950944;28;20122;-85
2021/12/26 03:43:33;;;;;;;4.90;1.90;;;-5.60;99.90;;;;;;4952277;28;20043;-85
2021/12/26 03:45:59;;;;;;;3.95;1.42;;;-5.60;99.90;;;;;;4934142;29;20047;-84
2021/12/26 03:48:26;;;;;;;4.15;1.40;;;-5.60;99.90;;;;;;4951959;28;20039;-85
2021/12/26 03:50:53;;;;;;;5.47;1.80;;;-5.60;99.90;;;;;;4952881;28;20515;-85
2021/12/26 03:53:19;;;;;;;4.25;1.63;;;-5.90;99.90;;;;;;4933919;29;20833;-85
2021/12/26 03:55:46;;;;;;;4.38;1.88;;;-5.50;99.90;;;;;;4935191;29;20039;-85
2021/12/26 03:58:13;;;;;;;5.95;2.00;;;-5.60;99.90;;;;;;4933714;29;20050;-85
2021/12/26 04:00:40;;;;;;;4.43;1.50;;;-5.60;99.90;;;;;;4934159;29;20046;-85
2021/12/26 04:03:05;;;;;;;5.47;1.73;;;-5.60;99.90;;;;;;4933721;29;20051;-85
2021/12/26 04:05:31;;;;;;;5.75;2.50;;;-5.60;99.90;;;;;;4934238;29;20058;-85
2021/12/26 04:07:57;;;;;;;5.15;1.80;;;-5.60;99.90;;;;;;4932946;29;20130;-85
2021/12/26 04:10:23;;;;;;;6.05;2.17;;;-4.70;99.90;;;;;;4933625;29;20051;-84
2021/12/26 04:12:52;;;;;;;4.82;1.50;;;-3.80;99.90;;;;;;4929335;29;20039;-84
2021/12/26 04:15:21;;;;;;;3.70;1.40;;;-5.60;99.90;;;;;;4933622;28;20064;-84
2021/12/26 04:17:47;;;;;;;4.60;1.40;;;-5.10;99.90;;;;;;4946131;28;20783;-84
2021/12/26 04:20:14;;;;;;;3.85;1.70;;;-5.70;99.90;;;;;;4932759;29;20058;-84
2021/12/26 04:22:40;;;;;;;4.03;1.65;;;-5.60;99.90;;;;;;4937281;28;20065;-85
2021/12/26 04:25:07;;;;;;;4.72;1.80;;;-5.60;99.90;;;;;;4932568;29;20048;-85
2021/12/26 04:27:33;;;;;;;4.75;1.85;;;-5.60;99.90;;;;;;4933803;29;20126;-84
2021/12/26 04:29:59;;;;;;;5.82;1.50;;;-5.60;99.90;;;;;;4932947;29;20047;-84
2021/12/26 04:32:25;;;;;;;4.60;1.45;;;-5.60;99.90;;;;;;4933039;28;20055;-84
2021/12/26 04:34:51;;;;;;;5.00;1.67;;;-5.60;99.90;;;;;;4930315;29;20055;-84
2021/12/26 04:37:16;;;;;;;4.75;1.55;;;-5.60;99.90;;;;;;4930919;29;20055;-84
2021/12/26 04:39:42;;;;;;;7.45;1.75;;;-5.60;99.90;;;;;;4932922;29;20051;-85
2021/12/26 04:42:08;;;;;;;4.10;1.50;;;-5.30;99.90;;;;;;4933753;28;20419;-84
2021/12/26 04:44:34;;;;;;;4.75;1.75;;;-5.70;99.90;;;;;;4933634;29;20047;-84
2021/12/26 04:47:00;;;;;;;6.68;2.20;;;-6.80;99.90;;;;;;4931569;29;20047;-84
2021/12/26 04:49:25;;;;;;;6.18;1.58;;;-5.70;99.90;;;;;;4931905;29;20043;-84
2021/12/26 04:51:51;;;;;;;4.40;1.50;;;-5.70;99.90;;;;;;4934511;28;20102;-84
2021/12/26 04:54:17;;;;;;;9.57;2.13;;;-5.70;99.90;;;;;;4933791;29;20051;-85
2021/12/26 04:56:42;;;;;;;6.90;2.17;;;-5.70;99.90;;;;;;4950188;28;20090;-85
2021/12/26 04:59:08;;;;;;;4.13;1.65;;;-5.70;99.90;;;;;;4937469;29;20066;-85
2021/12/26 05:01:35;;;;;;;3.53;1.83;;;-4.60;99.90;;;;;;4934392;28;20787;-85
2021/12/26 05:04:01;;;;;;;3.80;1.63;;;-5.80;99.90;;;;;;4934212;29;20063;-85
2021/12/26 05:06:28;;;;;;;5.10;1.90;;;-5.80;99.90;;;;;;4932289;29;20645;-85
2021/12/26 05:08:53;;;;;;;5.88;1.98;;;-5.60;99.90;;;;;;4933585;29;20039;-85
2021/12/26 05:11:19;;;;;;;6.93;2.10;;;-5.80;99.90;;;;;;4929092;28;20047;-85
2021/12/26 05:13:45;;;;;;;6.32;2.28;;;-5.90;99.90;;;;;;4929588;28;20126;-85
2021/12/26 05:16:10;;;;;;;5.10;1.77;;;-5.80;99.90;;;;;;4951296;28;20138;-85
2021/12/26 05:18:36;;;;;;;3.83;2.13;;;-5.40;99.90;;;;;;4932584;28;20048;-85
2021/12/26 05:21:02;;;;;;;5.65;2.30;;;-5.90;99.90;;;;;;4953983;28;20046;-85
2021/12/26 05:23:28;;;;;;;5.60;2.10;;;-5.90;99.90;;;;;;4955384;28;20380;-85
2021/12/26 05:25:54;;;;;;;5.60;2.35;;;-5.80;99.90;;;;;;4936940;29;20058;-85
2021/12/26 05:28:19;;;;;;;6.05;2.47;;;-5.90;99.90;;;;;;4937104;29;20093;-84
2021/12/26 05:30:45;;;;;;;4.60;1.90;;;-5.90;99.90;;;;;;4929141;28;20479;-84
2021/12/26 05:33:11;;;;;;;5.60;2.45;;;-5.90;99.90;;;;;;4921088;28;20084;-85
2021/12/26 05:35:36;;;;;;;7.57;2.20;;;-5.90;99.90;;;;;;4928223;29;20059;-84
2021/12/26 05:38:03;;;;;;;7.78;3.30;;;-6.00;99.90;;;;;;4934056;29;20426;-85
2021/12/26 05:40:28;;;;;;;7.32;2.28;;;-5.90;99.90;;;;;;4936101;29;20174;-84
2021/12/26 05:42:54;;;;;;;7.30;3.15;;;-5.90;99.90;;;;;;4938181;28;20130;-84
2021/12/26 05:45:20;;;;;;;6.25;2.40;;;-5.90;99.90;;;;;;4952583;28;20058;-85
2021/12/26 05:47:46;;;;;;;6.85;2.50;;;-5.90;99.90;;;;;;4952307;28;20047;-85
2021/12/26 05:50:14;;;;;;;5.07;2.40;;;-5.90;99.90;;;;;;4951888;28;20070;-85
2021/12/26 05:52:44;;;;;;;6.28;2.00;;;-5.90;99.90;;;;;;4954109;28;20599;-84
2021/12/26 05:55:10;;;;;;;5.97;2.20;;;-5.90;99.90;;;;;;4935855;29;20530;-84
2021/12/26 05:57:36;;;;;;;5.65;2.20;;;-5.90;99.90;;;;;;4953064;28;20126;-85
2021/12/26 06:00:07;;;;;;;5.50;2.30;;;-5.90;99.90;;;;;;4932202;29;20194;-85
2021/12/26 06:02:33;;;;;;;7.60;2.60;;;-5.90;99.90;;;;;;4938009;28;20450;-84
2021/12/26 06:04:58;;;;;;;6.38;1.85;;;-5.90;99.90;;;;;;4935488;29;20076;-84
2021/12/26 06:07:26;;;;;;;7.15;2.70;;;-5.90;99.90;;;;;;4934895;29;20047;-84
2021/12/26 06:09:52;;;;;;;4.55;2.10;;;-5.90;99.90;;;;;;4935881;29;20553;-84
2021/12/26 06:12:18;;;;;;;7.38;2.55;;;-5.90;99.90;;;;;;4949070;28;20047;-84
2021/12/26 06:14:44;;;;;;;6.05;2.40;;;-5.90;99.90;;;;;;4948564;28;20126;-84
2021/12/26 06:17:10;;;;;;;5.40;2.47;;;-5.90;99.90;;;;;;4936344;29;20189;-85
2021/12/26 06:19:36;;;;;;;5.63;2.50;;;-5.80;99.90;;;;;;4937233;29;20051;-85
2021/12/26 06:22:02;;;;;;;6.55;2.92;;;-5.90;99.90;;;;;;4937074;28;20059;-84
2021/12/26 06:24:31;;;;;;;4.28;2.17;;;-5.90;99.90;;;;;;4935865;29;20047;-85
2021/12/26 06:26:56;;;;;;;4.72;2.40;;;-6.10;99.90;;;;;;4933320;29;20047;-84
2021/12/26 06:29:22;;;;;;;5.85;2.50;;;-5.80;99.90;;;;;;4934583;29;20518;-84
2021/12/26 06:31:48;;;;;;;6.70;2.22;;;-5.90;99.90;;;;;;4964807;28;20050;-84
2021/12/26 06:34:14;;;;;;;9.60;2.63;;;-7.00;99.90;;;;;;4952102;28;20157;-84
2021/12/26 06:36:40;;;;;;;6.72;2.63;;;-5.80;99.90;;;;;;4952261;28;20096;-84
2021/12/26 06:39:06;;;;;;;7.93;2.90;;;-6.00;99.90;;;;;;4953197;28;20518;-84
2021/12/26 06:41:33;;;;;;;6.90;2.50;;;-6.00;99.90;;;;;;4946501;28;20051;-83
2021/12/26 06:43:58;;;;;;;7.07;2.55;;;-6.00;99.90;;;;;;4952481;28;20125;-83
2021/12/26 06:46:24;;;;;;;6.00;2.63;;;-6.00;99.90;;;;;;4949692;28;20594;-84
2021/12/26 06:48:50;;;;;;;4.78;2.28;;;-5.70;99.90;;;;;;4952855;28;20066;-84
2021/12/26 06:51:16;;;;;;;4.82;1.90;;;-6.00;99.90;;;;;;4971483;28;20053;-85
2021/12/26 06:53:41;;;;;;;8.45;3.13;;;-6.00;99.90;;;;;;4972003;28;20054;-85
2021/12/26 06:56:07;;;;;;;6.47;2.50;;;-6.00;99.90;;;;;;4951551;28;20034;-85
2021/12/26 06:58:33;;;;;;;5.30;2.60;;;-6.00;99.90;;;;;;4951533;28;20070;-85
2021/12/26 07:00:59;;;;;;;7.07;3.35;;;-5.50;99.90;;;;;;4966295;28;20066;-85
2021/12/26 07:03:25;;;;;;;6.35;2.60;;;-6.00;99.90;;;;;;4954135;28;20051;-85
2021/12/26 07:05:50;;;;;;;5.10;2.33;;;-6.00;99.90;;;;;;4952013;28;20509;-85
2021/12/26 07:08:16;;;;;;;7.60;2.95;;;-6.00;99.90;;;;;;4953020;28;20086;-85
2021/12/26 07:10:44;;;;;;;7.47;2.72;;;-6.00;99.90;;;;;;4968406;28;20529;-85
2021/12/26 07:13:10;;;;;;;7.95;3.10;;;-6.60;99.90;;;;;;4948812;28;20046;-86
2021/12/26 07:15:36;;;;;;;5.90;2.92;;;-6.00;99.90;;;;;;4946688;28;20047;-85
2021/12/26 07:18:03;;;;;;;7.45;3.45;;;-6.20;99.90;;;;;;4970003;28;20042;-86
2021/12/26 07:20:29;;;;;;;7.38;3.38;;;-6.10;99.90;;;;;;4971387;28;20498;-84
2021/12/26 07:22:55;;;;;;;6.18;3.05;;;-6.00;99.90;;;;;;4969012;28;20129;-85
2021/12/26 07:25:21;;;;;;;7.05;3.38;;;-5.90;99.90;;;;;;4952783;28;20847;-82
2021/12/26 07:27:50;;;;;;;9.10;3.13;;;-4.60;99.90;;;;;;4952133;28;20407;-82
2021/12/26 07:30:16;;;;;;;6.28;3.00;;;-5.90;99.90;;;;;;4949226;28;20062;-80
2021/12/26 07:32:41;;;;;;;9.48;2.95;;;-5.90;99.90;;;;;;4950192;28;20050;-76
2021/12/26 07:35:08;;;;;;;6.65;3.03;;;-5.90;99.90;;;;;;4949193;28;20057;-83
2021/12/26 07:37:34;;;;;;;8.45;3.60;;;-5.90;99.90;;;;;;4950500;28;20102;-82
2021/12/26 07:40:00;;;;;;;6.70;3.05;;;-6.30;99.90;;;;;;4950580;28;20818;-83
2021/12/26 07:42:28;;;;;;;7.13;3.33;;;-5.90;99.90;;;;;;4949691;28;20043;-83
2021/12/26 07:44:56;;;;;;;6.38;3.35;;;-5.90;99.90;;;;;;4951792;28;20581;-83
2021/12/26 07:47:22;;;;;;;7.60;2.83;;;-5.00;99.90;;;;;;4953145;28;20071;-83
2021/12/26 07:49:48;;;;;;;8.15;3.40;;;-5.10;99.90;;;;;;4953854;28;20567;-84
2021/12/26 07:52:18;;;;;;;6.80;3.25;;;-5.90;99.90;;;;;;4950574;28;20506;-82
2021/12/26 07:54:46;;;;;;;6.68;3.20;;;-5.90;99.90;;;;;;4949821;28;20591;-83
2021/12/26 07:57:13;;;;;;;8.43;2.97;;;-5.80;99.90;;;;;;4948527;28;20053;-84
2021/12/26 07:59:38;;;;;;;7.60;3.15;;;-5.90;99.90;;;;;;4945781;28;20035;-84
2021/12/26 08:02:07;;;;;;;5.85;2.92;;;-5.20;99.90;;;;;;4949102;28;20498;-83
2021/12/26 08:04:33;;;;;;;7.25;3.40;;;-5.90;99.90;;;;;;4946296;28;20043;-83
2021/12/26 08:07:00;;;;;;;10.25;3.58;;;-5.80;99.90;;;;;;4946559;28;20039;-83
2021/12/26 08:09:28;;;;;;;6.22;3.17;;;-5.80;99.90;;;;;;4945049;28;20066;-84
2021/12/26 08:11:54;;;;;;;7.65;3.38;;;-5.50;99.90;;;;;;4944447;28;20121;-84
2021/12/26 08:14:22;;;;;;;7.05;3.13;;;-5.70;99.90;;;;;;4945819;28;20507;-83
2021/12/26 08:16:48;;;;;;;6.90;3.30;;;-5.70;99.90;;;;;;4949494;28;20042;-82
2021/12/26 08:19:16;;;;;;;7.45;3.15;;;-5.70;99.90;;;;;;4950642;28;20053;-83
2021/12/26 08:21:42;;;;;;;7.55;3.70;;;-5.70;99.90;;;;;;4944169;28;20079;-83
2021/12/26 08:24:07;;;;;;;7.97;3.22;;;-5.70;99.90;;;;;;4945002;28;20130;-84
2021/12/26 08:26:35;;;;;;;6.80;3.58;;;-4.20;99.90;;;;;;4947133;28;20101;-84
2021/12/26 08:29:01;;;;;;;9.18;3.75;;;-5.60;99.90;;;;;;4949542;28;20165;-85
2021/12/26 08:31:28;;;;;;;9.13;3.80;;;-5.70;99.90;;;;;;4950040;28;20099;-84
2021/12/26 08:33:53;;;;;;;9.57;4.05;;;-5.60;99.90;;;;;;4947399;28;20057;-82
2021/12/26 08:36:20;;;;;;;6.47;3.50;;;-5.60;99.90;;;;;;4948238;28;20491;-84
2021/12/26 08:38:46;;;;;;;7.60;3.63;;;-5.10;99.90;;;;;;4950358;28;20451;-84
2021/12/26 08:41:12;;;;;;;7.20;3.40;;;-5.60;99.90;;;;;;4945955;28;20038;-73
2021/12/26 08:43:44;;;;;;;5.97;3.20;;;-5.60;99.90;;;;;;4965989;28;20043;-82
2021/12/26 08:46:11;;;;;;;7.15;3.67;;;-5.70;99.90;;;;;;4948679;28;20047;-84
2021/12/26 08:48:39;;;;;;;6.47;3.58;;;-5.50;99.90;;;;;;4945078;28;20051;-82
2021/12/26 08:51:05;;;;;;;7.97;4.15;;;-5.70;99.90;;;;;;4949458;28;20054;-77
2021/12/26 08:53:31;;;;;;;7.55;3.65;;;-5.50;99.90;;;;;;4962994;28;20061;-76
2021/12/26 08:56:00;;;;;;;8.52;4.35;;;-5.40;99.90;;;;;;4945659;28;20071;-75
2021/12/26 08:58:28;;;;;;;8.25;4.32;;;-5.40;99.90;;;;;;4951230;28;20487;-87
2021/12/26 09:00:55;;;;;;;9.25;3.63;;;-5.40;99.90;;;;;;4940221;28;20038;-87
2021/12/26 09:03:21;;;;;;;10.68;4.30;;;-5.40;99.90;;;;;;4942814;28;20047;-88
2021/12/26 09:05:46;;;;;;;7.10;3.88;;;-5.40;99.90;;;;;;4945038;28;20054;-89
2021/12/26 09:08:12;;;;;;;8.43;4.40;;;-5.30;99.90;;;;;;4946101;28;20038;-89
2021/12/26 09:10:42;;;;;;;7.53;4.00;;;-5.30;99.90;;;;;;4942376;28;20110;-90
2021/12/26 09:13:08;;;;;;;9.05;4.45;;;-5.00;99.90;;;;;;4942364;28;20080;-90
2021/12/26 09:15:35;;;;;;;7.70;4.35;;;-5.30;99.90;;;;;;4947063;28;20074;-89
2021/12/26 09:18:01;;;;;;;7.32;3.92;;;-5.20;99.90;;;;;;4945187;28;20051;-89
2021/12/26 09:20:28;;;;;;;8.93;4.60;;;-5.20;99.90;;;;;;4963996;28;20047;-86
2021/12/26 09:22:53;;;;;;;10.52;4.80;;;-4.70;99.90;;;;;;4938195;28;20047;-88
2021/12/26 09:25:20;;;;;;;7.63;4.07;;;-5.10;99.90;;;;;;4945025;28;20098;-88
2021/12/26 09:27:45;;;;;;;10.00;4.40;;;-4.80;99.90;;;;;;4948421;28;20051;-87
2021/12/26 09:30:12;;;;;;;8.30;4.20;;;-5.40;99.90;;;;;;4948160;28;20062;-85
2021/12/26 09:32:38;;;;;;;10.50;4.75;;;-5.10;99.90;;;;;;4945734;28;20051;-87
2021/12/26 09:35:06;;;;;;;10.32;4.72;;;-5.00;99.90;;;;;;4943799;28;20059;-86
2021/12/26 09:37:32;;;;;;;8.13;4.70;;;-5.50;99.90;;;;;;4931655;29;20060;-84
2021/12/26 09:39:58;;;;;;;8.32;4.28;;;-4.90;99.90;;;;;;4927054;29;20047;-86
2021/12/26 09:42:24;;;;;;;7.55;4.35;;;-4.90;99.90;;;;;;4924344;29;20078;-86
2021/12/26 09:44:51;;;;;;;9.52;4.68;;;-4.90;99.90;;;;;;4926253;29;20052;-86
2021/12/26 09:47:20;;;;;;;8.02;4.43;;;-4.80;99.90;;;;;;4941627;29;20047;-87
2021/12/26 09:49:45;;;;;;;6.10;3.90;;;-4.60;99.90;;;;;;4943180;28;20481;-83
2021/12/26 09:52:12;;;;;;;6.28;4.20;;;-4.70;99.90;;;;;;4923496;29;20047;-83
2021/12/26 09:54:38;;;;;;;7.78;4.53;;;-4.70;99.90;;;;;;4928873;29;20054;-85
2021/12/26 09:57:05;;;;;;;10.13;4.53;;;-4.70;99.90;;;;;;4927455;29;20399;-84
2021/12/26 09:59:31;;;;;;;13.95;4.72;;;-4.70;99.90;;;;;;4942447;28;20100;-88
2021/12/26 10:02:08;;;;;;;10.70;4.43;;;-4.60;99.90;;;;;;4920462;29;20047;-85
2021/12/26 10:04:35;;;;;;;13.63;4.13;;;-4.20;99.90;;;;;;4944244;28;20048;-85
2021/12/26 10:07:11;;;;;;;8.95;3.95;;;-4.70;99.90;;;;;;4931436;29;20055;-86
2021/12/26 10:09:42;;;;;;;7.68;4.13;;;-4.50;99.90;;;;;;4931009;29;20039;-86
2021/12/26 10:12:10;;;;;;;8.57;4.32;;;-4.40;99.90;;;;;;4930379;29;20118;-85
2021/12/26 10:14:38;;;;;;;9.13;4.13;;;-3.30;99.90;;;;;;4931511;29;20046;-88
2021/12/26 10:17:04;;;;;;;8.30;3.92;;;-4.20;99.90;;;;;;4935163;29;20409;-88
2021/12/26 10:19:35;;;;;;;9.30;3.65;;;-4.30;99.90;;;;;;4948096;28;20125;-89
2021/12/26 10:22:01;;;;;;;7.40;3.90;;;-4.30;99.90;;;;;;4931949;29;20074;-88
2021/12/26 10:24:29;;;;;;;9.35;4.22;;;-4.20;99.90;;;;;;4933778;29;20038;-88
2021/12/26 10:27:02;;;;;;;8.95;4.25;;;-4.20;99.90;;;;;;4948459;29;20039;-88
2021/12/26 10:29:38;;;;;;;14.00;4.35;;;-4.10;99.90;;;;;;4933347;29;20047;-88
2021/12/26 10:32:11;;;;;;;6.85;3.90;;;-4.10;99.90;;;;;;4929187;29;20084;-86
2021/12/26 10:34:40;;;;;;;9.18;3.92;;;-4.00;99.90;;;;;;4935161;28;20510;-88
2021/12/26 10:37:10;;;;;;;8.02;3.72;;;-4.00;99.90;;;;;;4949168;28;20134;-86
2021/12/26 10:39:40;;;;;;;6.43;3.65;;;-3.90;99.90;;;;;;4953194;28;20062;-87
2021/12/26 10:42:13;;;;;;;8.63;4.53;;;-3.80;99.90;;;;;;4953875;28;20050;-89
2021/12/26 10:44:42;;;;;;;8.93;4.13;;;-3.80;99.90;;;;;;4951149;28;20493;-86
2021/12/26 10:47:16;;;;;;;7.20;3.30;;;-3.70;99.90;;;;;;4953756;28;20045;-86
2021/12/26 10:49:53;;;;;;;7.03;3.78;;;-3.70;99.90;;;;;;4951049;28;20410;-85
2021/12/26 10:52:23;;;;;;;11.30;3.72;;;-3.60;99.90;;;;;;4964351;28;20073;-87
2021/12/26 10:55:03;;;;;;;7.53;4.00;;;-3.50;99.90;;;;;;4951772;28;20055;-87
2021/12/26 10:57:38;;;;;;;7.93;4.00;;;-3.40;99.90;;;;;;4950762;28;20050;-87
2021/12/26 11:00:06;;;;;;;;;;;-2.90;99.90;;;;;;4960011;28;20058;-88
2021/12/26 11:02:34;;;;;;;7.65;3.72;;;-3.10;99.90;;;;;;4945833;28;20289;-89
2021/12/26 11:05:40;;;;;;;9.05;3.80;;;-3.10;99.90;;;;;;4949846;28;20050;-89
2021/12/26 11:08:08;;;;;;;10.82;3.58;;;-3.00;99.90;;;;;;4928494;28;20082;-88
2021/12/26 11:10:38;;;;;;;6.70;3.90;;;-2.90;99.90;;;;;;4946826;28;20043;-88
2021/12/26 11:13:07;;;;;;;8.77;5.28;;;-2.80;99.90;;;;;;4941252;28;20391;-88
2021/12/26 11:15:36;;;;;;;8.02;3.42;;;-1.50;99.90;;;;;;4953578;28;20027;-88
2021/12/26 11:18:06;;;;;;;17.52;4.75;;;-2.60;99.90;;;;;;4943637;28;20066;-89
2021/12/26 11:20:35;;;;;;;7.07;3.33;;;-2.60;99.90;;;;;;4948657;28;20474;-88
2021/12/26 11:23:09;;;;;;;8.73;4.22;;;-2.20;99.90;;;;;;4949689;28;20077;-89
2021/12/26 11:25:36;;;;;;;7.15;3.45;;;-2.40;99.90;;;;;;4947951;28;20110;-89
2021/12/26 11:28:02;;;;;;;8.82;3.20;;;-2.40;99.90;;;;;;4946995;28;20043;-82
2021/12/26 11:30:28;;;;;;;6.65;2.70;;;-1.00;99.90;;;;;;4963917;28;20042;-89
2021/12/26 11:32:54;;;;;;;7.78;3.20;;;-2.10;99.90;;;;;;4950269;28;20503;-89
2021/12/26 11:35:21;;;;;;;7.25;3.38;;;-1.10;99.90;;;;;;4951826;28;20051;-88
2021/12/26 11:37:47;;;;;;;7.65;3.60;;;-1.90;99.90;;;;;;4947702;28;20043;-89
2021/12/26 11:40:15;;;;;;;9.15;3.53;;;-1.70;99.90;;;;;;4947584;28;20039;-90
2021/12/26 11:43:07;;;;;;;7.78;3.53;;;-1.60;99.90;;;;;;4968346;28;20565;-82
2021/12/26 11:45:52;;;;;;;8.60;3.38;;;-1.50;99.90;;;;;;4947363;28;20043;-82
2021/12/26 11:48:36;;;;;;;6.45;3.22;;;-1.40;99.90;;;;;;4968665;28;20086;-78
2021/12/26 11:51:24;;;;;;;11.23;3.38;;;-1.30;99.90;;;;;;4968714;28;20046;-77
2021/12/26 11:54:20;;;;;;;7.15;3.35;;;-1.20;99.90;;;;;;4959485;28;20085;-77
2021/12/26 11:57:26;;;;;;;8.43;4.28;;;-1.10;99.90;;;;;;4952461;28;20158;-77
2021/12/26 12:00:04;;;;;;;8.05;3.25;;;-1.00;99.90;;;;;;4958660;28;20059;-77
2021/12/26 12:02:40;;;;;;;9.52;3.92;;;-0.90;99.90;;;;;;4953245;28;20121;-77
2021/12/26 12:05:11;;;;;;;9.10;3.70;;;-0.80;99.90;;;;;;4954360;28;20098;-78
2021/12/26 12:07:47;;;;;;;12.23;3.75;;;-0.70;99.90;;;;;;4955503;28;20054;-78
2021/12/26 12:10:57;;;;;;;8.55;3.75;;;-0.60;99.90;;;;;;4952464;28;20047;-78
2021/12/26 12:13:23;;;;;;;10.70;3.78;;;-0.60;99.90;;;;;;4935511;28;20067;-77
2021/12/26 12:16:00;;;;;;;6.45;3.00;;;-0.50;99.90;;;;;;4952463;28;20054;-78
2021/12/26 12:18:29;;;;;;;6.47;2.97;;;-0.40;99.90;;;;;;4952830;28;20105;-78
2021/12/26 12:21:08;;;;;;;6.65;3.00;;;-0.40;99.90;;;;;;4971328;28;20047;-78
2021/12/26 12:23:36;;;;;;;8.30;3.35;;;-0.40;99.90;;;;;;4938879;28;20081;-78
2021/12/26 12:26:02;;;;;;;6.78;3.63;;;-0.30;99.90;;;;;;4969282;28;20145;-78
2021/12/26 12:28:40;;;;;;;9.75;4.20;;;-0.40;99.90;;;;;;4955439;28;20055;-78
2021/12/26 12:31:09;;;;;;;8.48;3.75;;;-0.30;99.90;;;;;;4952549;28;20051;-78
2021/12/26 12:33:36;;;;;;;8.85;3.95;;;-0.30;99.90;;;;;;4967612;28;20046;-78
2021/12/26 12:36:13;;;;;;;15.25;4.10;;;-0.30;99.90;;;;;;4949973;28;20414;-78
2021/12/26 12:38:42;;;;;;;7.72;3.83;;;-0.30;99.90;;;;;;4952513;28;20103;-79
2021/12/26 12:41:29;;;;;;;8.90;3.17;;;-0.30;99.90;;;;;;4953721;28;20054;-78
2021/12/26 12:43:57;;;;;;;10.90;3.85;;;-0.20;99.90;;;;;;4947157;28;20043;-79
2021/12/26 12:46:23;;;;;;;6.43;3.20;;;-0.30;99.90;;;;;;4952683;28;20142;-79
2021/12/26 12:49:08;;;;;;;13.23;3.58;;;-0.30;99.90;;;;;;4952723;28;20070;-79
2021/12/26 12:51:42;;;;;;;9.00;3.55;;;-0.30;99.90;;;;;;4940357;29;20051;-79